sensor_id;sensor_type;location;lat;lon;timestamp;P1;durP1;ratioP1;P2;durP2;ratioP2
58784;SDS011;44557;51.862;19.378;2022-09-09T00:00:33;12.80;;;8.10;;
58784;SDS011;44557;51.862;19.378;2022-09-09T00:02:23;10.20;;;7.30;;
58784;SDS011;44557;51.862;19.378;2022-09-09T00:03:35;12.50;;;7.20;;
58784;SDS011;44557;51.862;19.378;2022-09-09T00:05:09;13.00;;;7.80;;
58784;SDS011;44557;51.862;19.378;2022-09-09T00:06:43;14.10;;;8.50;;
58784;SDS011;44557;51.862;19.378;2022-09-09T00:07:51;13.20;;;8.20;;
58784;SDS011;44557;51.862;19.378;2022-09-09T00:15:02;11.90;;;7.80;;
58784;SDS011;44557;51.862;19.378;2022-09-09T00:15:57;14.20;;;8.30;;
58784;SDS011;44557;51.862;19.378;2022-09-09T00:17:08;11.50;;;8.00;;
58784;SDS011;44557;51.862;19.378;2022-09-09T00:19:44;12.20;;;8.00;;
58784;SDS011;44557;51.862;19.378;2022-09-09T00:22:20;12.80;;;7.80;;
58784;SDS011;44557;51.862;19.378;2022-09-09T00:23:25;12.00;;;7.90;;
58784;SDS011;44557;51.862;19.378;2022-09-09T00:24:47;12.10;;;8.20;;
58784;SDS011;44557;51.862;19.378;2022-09-09T00:27:16;12.00;;;7.30;;
58784;SDS011;44557;51.862;19.378;2022-09-09T00:28:32;12.30;;;8.20;;
58784;SDS011;44557;51.862;19.378;2022-09-09T00:29:45;13.10;;;8.30;;
58784;SDS011;44557;51.862;19.378;2022-09-09T00:30:54;13.20;;;7.80;;
58784;SDS011;44557;51.862;19.378;2022-09-09T00:32:09;14.20;;;8.20;;
58784;SDS011;44557;51.862;19.378;2022-09-09T00:33:16;13.30;;;8.50;;
58784;SDS011;44557;51.862;19.378;2022-09-09T00:34:23;13.60;;;8.60;;
58784;SDS011;44557;51.862;19.378;2022-09-09T00:35:29;12.70;;;8.30;;
58784;SDS011;44557;51.862;19.378;2022-09-09T00:36:35;12.90;;;8.50;;
58784;SDS011;44557;51.862;19.378;2022-09-09T00:37:38;12.20;;;8.30;;
58784;SDS011;44557;51.862;19.378;2022-09-09T00:38:47;12.90;;;8.90;;
58784;SDS011;44557;51.862;19.378;2022-09-09T00:39:53;14.80;;;8.60;;
58784;SDS011;44557;51.862;19.378;2022-09-09T00:42:15;12.20;;;8.50;;
58784;SDS011;44557;51.862;19.378;2022-09-09T00:43:30;13.60;;;8.60;;
58784;SDS011;44557;51.862;19.378;2022-09-09T00:44:51;13.10;;;7.90;;
58784;SDS011;44557;51.862;19.378;2022-09-09T00:46:27;10.90;;;8.20;;
58784;SDS011;44557;51.862;19.378;2022-09-09T00:50:05;13.40;;;8.50;;
58784;SDS011;44557;51.862;19.378;2022-09-09T00:51:48;12.30;;;8.40;;
58784;SDS011;44557;51.862;19.378;2022-09-09T00:55:41;13.30;;;8.90;;
58784;SDS011;44557;51.862;19.378;2022-09-09T00:57:00;11.20;;;7.90;;
58784;SDS011;44557;51.862;19.378;2022-09-09T00:58:20;15.10;;;8.60;;
58784;SDS011;44557;51.862;19.378;2022-09-09T00:59:32;11.50;;;8.00;;
58784;SDS011;44557;51.862;19.378;2022-09-09T01:01:52;14.10;;;9.00;;
58784;SDS011;44557;51.862;19.378;2022-09-09T01:04:34;13.50;;;8.40;;
58784;SDS011;44557;51.862;19.378;2022-09-09T01:07:21;13.10;;;8.20;;
58784;SDS011;44557;51.862;19.378;2022-09-09T01:08:39;12.50;;;8.80;;
58784;SDS011;44557;51.862;19.378;2022-09-09T01:10:54;14.50;;;8.40;;
58784;SDS011;44557;51.862;19.378;2022-09-09T01:13:05;14.20;;;8.80;;
58784;SDS011;44557;51.862;19.378;2022-09-09T01:14:22;15.10;;;9.50;;
58784;SDS011;44557;51.862;19.378;2022-09-09T01:15:31;13.50;;;8.90;;
58784;SDS011;44557;51.862;19.378;2022-09-09T01:16:35;15.20;;;8.70;;
58784;SDS011;44557;51.862;19.378;2022-09-09T01:17:46;14.90;;;9.20;;
58784;SDS011;44557;51.862;19.378;2022-09-09T01:19:05;13.70;;;9.50;;
58784;SDS011;44557;51.862;19.378;2022-09-09T01:21:34;12.40;;;8.10;;
58784;SDS011;44557;51.862;19.378;2022-09-09T01:26:58;13.10;;;8.90;;
58784;SDS011;44557;51.862;19.378;2022-09-09T01:28:05;15.50;;;9.30;;
58784;SDS011;44557;51.862;19.378;2022-09-09T01:29:12;12.90;;;9.10;;
58784;SDS011;44557;51.862;19.378;2022-09-09T01:30:16;14.00;;;9.50;;
58784;SDS011;44557;51.862;19.378;2022-09-09T01:31:20;13.20;;;8.70;;
58784;SDS011;44557;51.862;19.378;2022-09-09T01:33:51;14.10;;;8.70;;
58784;SDS011;44557;51.862;19.378;2022-09-09T01:34:53;13.20;;;8.70;;
58784;SDS011;44557;51.862;19.378;2022-09-09T01:36:02;12.60;;;8.50;;
58784;SDS011;44557;51.862;19.378;2022-09-09T01:37:10;12.60;;;8.80;;
58784;SDS011;44557;51.862;19.378;2022-09-09T01:38:13;13.30;;;9.20;;
58784;SDS011;44557;51.862;19.378;2022-09-09T01:39:16;14.60;;;8.80;;
58784;SDS011;44557;51.862;19.378;2022-09-09T01:40:18;12.20;;;8.80;;
58784;SDS011;44557;51.862;19.378;2022-09-09T01:41:20;14.20;;;8.70;;
58784;SDS011;44557;51.862;19.378;2022-09-09T01:42:22;12.40;;;8.80;;
58784;SDS011;44557;51.862;19.378;2022-09-09T01:43:24;13.80;;;9.30;;
58784;SDS011;44557;51.862;19.378;2022-09-09T01:44:27;15.40;;;9.30;;
58784;SDS011;44557;51.862;19.378;2022-09-09T01:45:31;12.40;;;8.60;;
58784;SDS011;44557;51.862;19.378;2022-09-09T01:46:32;12.00;;;9.00;;
58784;SDS011;44557;51.862;19.378;2022-09-09T01:47:34;13.80;;;9.00;;
58784;SDS011;44557;51.862;19.378;2022-09-09T01:48:37;11.90;;;8.00;;
58784;SDS011;44557;51.862;19.378;2022-09-09T01:49:38;15.60;;;9.60;;
58784;SDS011;44557;51.862;19.378;2022-09-09T01:50:40;15.00;;;9.30;;
58784;SDS011;44557;51.862;19.378;2022-09-09T01:51:41;15.60;;;8.80;;
58784;SDS011;44557;51.862;19.378;2022-09-09T01:52:45;14.80;;;9.50;;
58784;SDS011;44557;51.862;19.378;2022-09-09T01:53:50;14.30;;;9.00;;
58784;SDS011;44557;51.862;19.378;2022-09-09T01:54:52;14.80;;;9.40;;
58784;SDS011;44557;51.862;19.378;2022-09-09T01:56:00;15.30;;;9.60;;
58784;SDS011;44557;51.862;19.378;2022-09-09T02:00:08;14.90;;;9.30;;
58784;SDS011;44557;51.862;19.378;2022-09-09T02:03:07;12.70;;;9.30;;
58784;SDS011;44557;51.862;19.378;2022-09-09T02:04:34;15.90;;;9.30;;
58784;SDS011;44557;51.862;19.378;2022-09-09T02:05:40;12.70;;;9.30;;
58784;SDS011;44557;51.862;19.378;2022-09-09T02:06:44;14.80;;;9.40;;
58784;SDS011;44557;51.862;19.378;2022-09-09T02:07:50;14.50;;;9.80;;
58784;SDS011;44557;51.862;19.378;2022-09-09T02:09:03;13.80;;;9.70;;
58784;SDS011;44557;51.862;19.378;2022-09-09T02:10:11;12.80;;;9.60;;
58784;SDS011;44557;51.862;19.378;2022-09-09T02:11:33;13.90;;;10.10;;
58784;SDS011;44557;51.862;19.378;2022-09-09T02:12:35;13.80;;;9.90;;
58784;SDS011;44557;51.862;19.378;2022-09-09T02:13:38;15.50;;;10.00;;
58784;SDS011;44557;51.862;19.378;2022-09-09T02:14:42;14.10;;;9.70;;
58784;SDS011;44557;51.862;19.378;2022-09-09T02:17:10;14.60;;;10.30;;
58784;SDS011;44557;51.862;19.378;2022-09-09T02:18:15;14.20;;;10.00;;
58784;SDS011;44557;51.862;19.378;2022-09-09T02:19:25;17.60;;;9.80;;
58784;SDS011;44557;51.862;19.378;2022-09-09T02:20:29;14.40;;;9.90;;
58784;SDS011;44557;51.862;19.378;2022-09-09T02:21:35;13.30;;;10.20;;
58784;SDS011;44557;51.862;19.378;2022-09-09T02:22:38;14.40;;;9.80;;
58784;SDS011;44557;51.862;19.378;2022-09-09T02:23:45;14.20;;;9.70;;
58784;SDS011;44557;51.862;19.378;2022-09-09T02:24:53;15.50;;;10.40;;
58784;SDS011;44557;51.862;19.378;2022-09-09T02:26:00;15.00;;;9.90;;
58784;SDS011;44557;51.862;19.378;2022-09-09T02:27:03;13.20;;;9.90;;
58784;SDS011;44557;51.862;19.378;2022-09-09T02:28:09;15.00;;;10.30;;
58784;SDS011;44557;51.862;19.378;2022-09-09T02:29:18;14.40;;;10.20;;
58784;SDS011;44557;51.862;19.378;2022-09-09T02:30:24;15.40;;;10.60;;
58784;SDS011;44557;51.862;19.378;2022-09-09T02:31:26;15.70;;;10.40;;
58784;SDS011;44557;51.862;19.378;2022-09-09T02:32:27;15.00;;;10.60;;
58784;SDS011;44557;51.862;19.378;2022-09-09T02:33:37;15.00;;;10.50;;
58784;SDS011;44557;51.862;19.378;2022-09-09T02:34:47;14.90;;;10.60;;
58784;SDS011;44557;51.862;19.378;2022-09-09T02:35:52;13.90;;;9.10;;
58784;SDS011;44557;51.862;19.378;2022-09-09T02:36:57;15.20;;;9.90;;
58784;SDS011;44557;51.862;19.378;2022-09-09T02:38:02;16.00;;;10.70;;
58784;SDS011;44557;51.862;19.378;2022-09-09T02:39:08;15.60;;;10.90;;
58784;SDS011;44557;51.862;19.378;2022-09-09T02:40:12;14.50;;;10.60;;
58784;SDS011;44557;51.862;19.378;2022-09-09T02:41:20;14.10;;;10.60;;
58784;SDS011;44557;51.862;19.378;2022-09-09T02:42:25;15.90;;;11.00;;
58784;SDS011;44557;51.862;19.378;2022-09-09T02:43:33;16.20;;;11.30;;
58784;SDS011;44557;51.862;19.378;2022-09-09T02:44:35;15.00;;;11.60;;
58784;SDS011;44557;51.862;19.378;2022-09-09T02:45:42;14.70;;;10.50;;
58784;SDS011;44557;51.862;19.378;2022-09-09T02:48:38;14.40;;;11.00;;
58784;SDS011;44557;51.862;19.378;2022-09-09T02:51:40;13.20;;;10.10;;
58784;SDS011;44557;51.862;19.378;2022-09-09T02:52:47;14.50;;;10.10;;
58784;SDS011;44557;51.862;19.378;2022-09-09T02:56:32;17.30;;;11.00;;
58784;SDS011;44557;51.862;19.378;2022-09-09T02:57:40;15.40;;;11.00;;
58784;SDS011;44557;51.862;19.378;2022-09-09T02:58:44;17.10;;;12.00;;
58784;SDS011;44557;51.862;19.378;2022-09-09T02:59:47;13.90;;;10.90;;
58784;SDS011;44557;51.862;19.378;2022-09-09T03:00:50;14.10;;;11.10;;
58784;SDS011;44557;51.862;19.378;2022-09-09T03:01:53;16.20;;;10.90;;
58784;SDS011;44557;51.862;19.378;2022-09-09T03:02:55;15.40;;;10.90;;
58784;SDS011;44557;51.862;19.378;2022-09-09T03:03:57;17.20;;;10.90;;
58784;SDS011;44557;51.862;19.378;2022-09-09T03:04:59;14.00;;;10.70;;
58784;SDS011;44557;51.862;19.378;2022-09-09T03:06:00;16.00;;;10.80;;
58784;SDS011;44557;51.862;19.378;2022-09-09T03:07:02;15.30;;;11.10;;
58784;SDS011;44557;51.862;19.378;2022-09-09T03:08:04;16.30;;;11.80;;
58784;SDS011;44557;51.862;19.378;2022-09-09T03:09:06;16.30;;;11.10;;
58784;SDS011;44557;51.862;19.378;2022-09-09T03:10:09;16.60;;;11.80;;
58784;SDS011;44557;51.862;19.378;2022-09-09T03:11:11;14.60;;;11.40;;
58784;SDS011;44557;51.862;19.378;2022-09-09T03:12:14;18.10;;;12.00;;
58784;SDS011;44557;51.862;19.378;2022-09-09T03:13:16;20.40;;;13.10;;
58784;SDS011;44557;51.862;19.378;2022-09-09T03:14:19;16.90;;;12.70;;
58784;SDS011;44557;51.862;19.378;2022-09-09T03:15:22;17.10;;;12.80;;
58784;SDS011;44557;51.862;19.378;2022-09-09T03:16:23;18.30;;;12.70;;
58784;SDS011;44557;51.862;19.378;2022-09-09T03:17:25;17.50;;;12.20;;
58784;SDS011;44557;51.862;19.378;2022-09-09T03:18:29;16.90;;;12.70;;
58784;SDS011;44557;51.862;19.378;2022-09-09T03:19:30;19.80;;;13.30;;
58784;SDS011;44557;51.862;19.378;2022-09-09T03:20:32;18.40;;;13.20;;
58784;SDS011;44557;51.862;19.378;2022-09-09T03:21:34;17.30;;;13.40;;
58784;SDS011;44557;51.862;19.378;2022-09-09T03:22:36;17.10;;;13.30;;
58784;SDS011;44557;51.862;19.378;2022-09-09T03:23:38;19.80;;;14.00;;
58784;SDS011;44557;51.862;19.378;2022-09-09T03:24:39;18.40;;;14.40;;
58784;SDS011;44557;51.862;19.378;2022-09-09T03:25:47;17.30;;;14.40;;
58784;SDS011;44557;51.862;19.378;2022-09-09T03:26:51;18.70;;;14.60;;
58784;SDS011;44557;51.862;19.378;2022-09-09T03:27:53;17.90;;;13.50;;
58784;SDS011;44557;51.862;19.378;2022-09-09T03:28:56;19.10;;;13.30;;
58784;SDS011;44557;51.862;19.378;2022-09-09T03:29:57;20.00;;;13.90;;
58784;SDS011;44557;51.862;19.378;2022-09-09T03:31:00;18.50;;;12.90;;
58784;SDS011;44557;51.862;19.378;2022-09-09T03:32:02;17.30;;;12.60;;
58784;SDS011;44557;51.862;19.378;2022-09-09T03:33:04;17.30;;;13.00;;
58784;SDS011;44557;51.862;19.378;2022-09-09T03:34:05;15.10;;;12.20;;
58784;SDS011;44557;51.862;19.378;2022-09-09T03:35:07;16.90;;;12.20;;
58784;SDS011;44557;51.862;19.378;2022-09-09T03:36:10;17.90;;;12.70;;
58784;SDS011;44557;51.862;19.378;2022-09-09T03:37:11;16.60;;;11.60;;
58784;SDS011;44557;51.862;19.378;2022-09-09T03:38:13;16.50;;;12.60;;
58784;SDS011;44557;51.862;19.378;2022-09-09T03:39:14;17.70;;;12.80;;
58784;SDS011;44557;51.862;19.378;2022-09-09T03:40:16;15.80;;;11.90;;
58784;SDS011;44557;51.862;19.378;2022-09-09T03:41:19;15.90;;;12.10;;
58784;SDS011;44557;51.862;19.378;2022-09-09T03:42:21;16.90;;;13.20;;
58784;SDS011;44557;51.862;19.378;2022-09-09T03:43:23;15.90;;;12.40;;
58784;SDS011;44557;51.862;19.378;2022-09-09T03:44:26;17.50;;;12.50;;
58784;SDS011;44557;51.862;19.378;2022-09-09T03:45:28;18.80;;;12.80;;
58784;SDS011;44557;51.862;19.378;2022-09-09T03:46:30;17.40;;;12.90;;
58784;SDS011;44557;51.862;19.378;2022-09-09T03:47:33;16.30;;;12.80;;
58784;SDS011;44557;51.862;19.378;2022-09-09T03:48:34;17.00;;;12.70;;
58784;SDS011;44557;51.862;19.378;2022-09-09T03:49:36;16.80;;;13.10;;
58784;SDS011;44557;51.862;19.378;2022-09-09T03:50:37;16.80;;;12.90;;
58784;SDS011;44557;51.862;19.378;2022-09-09T03:51:39;16.10;;;12.10;;
58784;SDS011;44557;51.862;19.378;2022-09-09T03:52:41;18.20;;;12.80;;
58784;SDS011;44557;51.862;19.378;2022-09-09T03:53:43;17.20;;;12.00;;
58784;SDS011;44557;51.862;19.378;2022-09-09T03:54:45;18.90;;;12.90;;
58784;SDS011;44557;51.862;19.378;2022-09-09T03:55:47;17.40;;;13.00;;
58784;SDS011;44557;51.862;19.378;2022-09-09T03:56:50;17.00;;;12.70;;
58784;SDS011;44557;51.862;19.378;2022-09-09T03:57:51;16.20;;;12.60;;
58784;SDS011;44557;51.862;19.378;2022-09-09T03:58:53;14.90;;;12.60;;
58784;SDS011;44557;51.862;19.378;2022-09-09T03:59:54;17.90;;;12.70;;
58784;SDS011;44557;51.862;19.378;2022-09-09T04:00:56;17.60;;;12.80;;
58784;SDS011;44557;51.862;19.378;2022-09-09T04:01:59;17.40;;;13.00;;
58784;SDS011;44557;51.862;19.378;2022-09-09T04:03:01;17.20;;;12.50;;
58784;SDS011;44557;51.862;19.378;2022-09-09T04:04:03;19.00;;;13.60;;
58784;SDS011;44557;51.862;19.378;2022-09-09T04:05:05;15.80;;;12.10;;
58784;SDS011;44557;51.862;19.378;2022-09-09T04:06:08;18.10;;;12.40;;
58784;SDS011;44557;51.862;19.378;2022-09-09T04:07:13;18.20;;;13.20;;
58784;SDS011;44557;51.862;19.378;2022-09-09T04:08:15;21.10;;;13.70;;
58784;SDS011;44557;51.862;19.378;2022-09-09T04:09:17;18.70;;;13.30;;
58784;SDS011;44557;51.862;19.378;2022-09-09T04:10:19;19.00;;;12.70;;
58784;SDS011;44557;51.862;19.378;2022-09-09T04:11:22;19.10;;;13.90;;
58784;SDS011;44557;51.862;19.378;2022-09-09T04:12:23;19.00;;;13.70;;
58784;SDS011;44557;51.862;19.378;2022-09-09T04:13:25;19.00;;;13.80;;
58784;SDS011;44557;51.862;19.378;2022-09-09T04:14:27;19.20;;;14.20;;
58784;SDS011;44557;51.862;19.378;2022-09-09T04:15:30;20.40;;;14.20;;
58784;SDS011;44557;51.862;19.378;2022-09-09T04:16:32;20.90;;;14.10;;
58784;SDS011;44557;51.862;19.378;2022-09-09T04:17:34;18.30;;;13.60;;
58784;SDS011;44557;51.862;19.378;2022-09-09T04:18:37;19.40;;;14.60;;
58784;SDS011;44557;51.862;19.378;2022-09-09T04:19:39;23.30;;;14.30;;
58784;SDS011;44557;51.862;19.378;2022-09-09T04:20:41;22.20;;;14.20;;
58784;SDS011;44557;51.862;19.378;2022-09-09T04:21:44;22.20;;;14.20;;
58784;SDS011;44557;51.862;19.378;2022-09-09T04:22:46;20.90;;;13.90;;
58784;SDS011;44557;51.862;19.378;2022-09-09T04:23:47;18.50;;;13.40;;
58784;SDS011;44557;51.862;19.378;2022-09-09T04:24:49;21.90;;;14.10;;
58784;SDS011;44557;51.862;19.378;2022-09-09T04:25:51;20.50;;;14.30;;
58784;SDS011;44557;51.862;19.378;2022-09-09T04:26:54;21.20;;;13.80;;
58784;SDS011;44557;51.862;19.378;2022-09-09T04:27:57;19.70;;;13.70;;
58784;SDS011;44557;51.862;19.378;2022-09-09T04:28:59;19.00;;;13.90;;
58784;SDS011;44557;51.862;19.378;2022-09-09T04:30:00;19.70;;;14.50;;
58784;SDS011;44557;51.862;19.378;2022-09-09T04:31:10;22.80;;;14.50;;
58784;SDS011;44557;51.862;19.378;2022-09-09T04:32:16;18.80;;;13.30;;
58784;SDS011;44557;51.862;19.378;2022-09-09T04:33:18;20.60;;;13.90;;
58784;SDS011;44557;51.862;19.378;2022-09-09T04:34:20;18.70;;;13.50;;
58784;SDS011;44557;51.862;19.378;2022-09-09T04:35:22;20.00;;;13.80;;
58784;SDS011;44557;51.862;19.378;2022-09-09T04:36:24;21.90;;;14.20;;
58784;SDS011;44557;51.862;19.378;2022-09-09T04:37:25;21.90;;;13.50;;
58784;SDS011;44557;51.862;19.378;2022-09-09T04:38:27;21.40;;;13.80;;
58784;SDS011;44557;51.862;19.378;2022-09-09T04:39:28;22.50;;;14.60;;
58784;SDS011;44557;51.862;19.378;2022-09-09T04:40:31;22.60;;;15.00;;
58784;SDS011;44557;51.862;19.378;2022-09-09T04:41:32;20.50;;;14.40;;
58784;SDS011;44557;51.862;19.378;2022-09-09T04:42:35;20.10;;;13.90;;
58784;SDS011;44557;51.862;19.378;2022-09-09T04:43:37;20.20;;;14.80;;
58784;SDS011;44557;51.862;19.378;2022-09-09T04:44:40;22.90;;;15.30;;
58784;SDS011;44557;51.862;19.378;2022-09-09T04:45:42;21.40;;;14.70;;
58784;SDS011;44557;51.862;19.378;2022-09-09T04:46:44;23.30;;;15.30;;
58784;SDS011;44557;51.862;19.378;2022-09-09T04:47:46;23.90;;;15.90;;
58784;SDS011;44557;51.862;19.378;2022-09-09T04:48:48;20.60;;;14.30;;
58784;SDS011;44557;51.862;19.378;2022-09-09T04:49:50;23.40;;;14.80;;
58784;SDS011;44557;51.862;19.378;2022-09-09T04:51:00;21.70;;;14.40;;
58784;SDS011;44557;51.862;19.378;2022-09-09T04:52:03;26.00;;;16.00;;
58784;SDS011;44557;51.862;19.378;2022-09-09T04:53:05;25.80;;;15.80;;
58784;SDS011;44557;51.862;19.378;2022-09-09T04:54:07;31.60;;;16.40;;
58784;SDS011;44557;51.862;19.378;2022-09-09T04:55:09;24.70;;;15.50;;
58784;SDS011;44557;51.862;19.378;2022-09-09T04:56:11;23.80;;;14.30;;
58784;SDS011;44557;51.862;19.378;2022-09-09T04:57:15;24.00;;;15.70;;
58784;SDS011;44557;51.862;19.378;2022-09-09T04:58:17;25.70;;;16.00;;
58784;SDS011;44557;51.862;19.378;2022-09-09T04:59:19;22.90;;;15.20;;
58784;SDS011;44557;51.862;19.378;2022-09-09T05:00:21;28.20;;;16.30;;
58784;SDS011;44557;51.862;19.378;2022-09-09T05:01:25;26.40;;;16.80;;
58784;SDS011;44557;51.862;19.378;2022-09-09T05:02:29;25.70;;;16.60;;
58784;SDS011;44557;51.862;19.378;2022-09-09T05:03:31;25.50;;;15.80;;
58784;SDS011;44557;51.862;19.378;2022-09-09T05:04:33;28.90;;;16.10;;
58784;SDS011;44557;51.862;19.378;2022-09-09T05:05:35;23.10;;;15.60;;
58784;SDS011;44557;51.862;19.378;2022-09-09T05:06:37;24.90;;;16.50;;
58784;SDS011;44557;51.862;19.378;2022-09-09T05:07:39;24.20;;;15.50;;
58784;SDS011;44557;51.862;19.378;2022-09-09T05:08:41;28.40;;;17.20;;
58784;SDS011;44557;51.862;19.378;2022-09-09T05:09:44;24.20;;;15.90;;
58784;SDS011;44557;51.862;19.378;2022-09-09T05:10:46;28.30;;;16.70;;
58784;SDS011;44557;51.862;19.378;2022-09-09T05:11:48;28.10;;;17.90;;
58784;SDS011;44557;51.862;19.378;2022-09-09T05:12:53;27.10;;;17.10;;
58784;SDS011;44557;51.862;19.378;2022-09-09T05:13:55;23.90;;;15.60;;
58784;SDS011;44557;51.862;19.378;2022-09-09T05:15:01;30.50;;;17.30;;
58784;SDS011;44557;51.862;19.378;2022-09-09T05:16:02;28.30;;;17.60;;
58784;SDS011;44557;51.862;19.378;2022-09-09T05:17:04;29.60;;;17.80;;
58784;SDS011;44557;51.862;19.378;2022-09-09T05:18:05;25.00;;;17.30;;
58784;SDS011;44557;51.862;19.378;2022-09-09T05:19:08;27.60;;;16.90;;
58784;SDS011;44557;51.862;19.378;2022-09-09T05:20:10;26.90;;;17.00;;
58784;SDS011;44557;51.862;19.378;2022-09-09T05:21:12;31.30;;;18.90;;
58784;SDS011;44557;51.862;19.378;2022-09-09T05:22:19;30.30;;;18.90;;
58784;SDS011;44557;51.862;19.378;2022-09-09T05:23:21;34.60;;;18.40;;
58784;SDS011;44557;51.862;19.378;2022-09-09T05:24:23;30.80;;;18.40;;
58784;SDS011;44557;51.862;19.378;2022-09-09T05:25:25;25.90;;;17.60;;
58784;SDS011;44557;51.862;19.378;2022-09-09T05:26:27;29.60;;;17.40;;
58784;SDS011;44557;51.862;19.378;2022-09-09T05:27:30;28.80;;;17.60;;
58784;SDS011;44557;51.862;19.378;2022-09-09T05:28:33;31.30;;;17.50;;
58784;SDS011;44557;51.862;19.378;2022-09-09T05:29:36;29.80;;;17.70;;
58784;SDS011;44557;51.862;19.378;2022-09-09T05:30:38;27.90;;;17.80;;
58784;SDS011;44557;51.862;19.378;2022-09-09T05:31:39;30.40;;;18.50;;
58784;SDS011;44557;51.862;19.378;2022-09-09T05:32:42;27.90;;;17.80;;
58784;SDS011;44557;51.862;19.378;2022-09-09T05:33:45;30.70;;;17.70;;
58784;SDS011;44557;51.862;19.378;2022-09-09T05:34:47;28.70;;;18.50;;
58784;SDS011;44557;51.862;19.378;2022-09-09T05:35:54;31.40;;;18.30;;
58784;SDS011;44557;51.862;19.378;2022-09-09T05:37:05;27.10;;;17.40;;
58784;SDS011;44557;51.862;19.378;2022-09-09T05:38:07;27.00;;;17.70;;
58784;SDS011;44557;51.862;19.378;2022-09-09T05:39:09;27.50;;;17.30;;
58784;SDS011;44557;51.862;19.378;2022-09-09T05:40:13;27.10;;;18.20;;
58784;SDS011;44557;51.862;19.378;2022-09-09T05:41:15;31.00;;;18.70;;
58784;SDS011;44557;51.862;19.378;2022-09-09T05:42:18;25.30;;;17.10;;
58784;SDS011;44557;51.862;19.378;2022-09-09T05:43:20;26.80;;;17.60;;
58784;SDS011;44557;51.862;19.378;2022-09-09T05:44:21;29.50;;;18.60;;
58784;SDS011;44557;51.862;19.378;2022-09-09T05:45:25;30.50;;;17.20;;
58784;SDS011;44557;51.862;19.378;2022-09-09T05:46:26;25.70;;;17.60;;
58784;SDS011;44557;51.862;19.378;2022-09-09T05:47:28;28.30;;;18.00;;
58784;SDS011;44557;51.862;19.378;2022-09-09T05:48:33;29.90;;;18.00;;
58784;SDS011;44557;51.862;19.378;2022-09-09T05:49:37;27.50;;;18.30;;
58784;SDS011;44557;51.862;19.378;2022-09-09T05:50:38;27.00;;;18.40;;
58784;SDS011;44557;51.862;19.378;2022-09-09T05:51:39;27.20;;;18.40;;
58784;SDS011;44557;51.862;19.378;2022-09-09T05:52:41;27.00;;;18.40;;
58784;SDS011;44557;51.862;19.378;2022-09-09T05:53:43;30.00;;;19.10;;
58784;SDS011;44557;51.862;19.378;2022-09-09T05:54:46;26.40;;;17.90;;
58784;SDS011;44557;51.862;19.378;2022-09-09T05:55:48;26.00;;;18.90;;
58784;SDS011;44557;51.862;19.378;2022-09-09T05:56:50;27.00;;;17.20;;
58784;SDS011;44557;51.862;19.378;2022-09-09T05:57:53;27.00;;;19.00;;
58784;SDS011;44557;51.862;19.378;2022-09-09T05:58:55;26.00;;;17.80;;
58784;SDS011;44557;51.862;19.378;2022-09-09T05:59:57;27.20;;;17.90;;
58784;SDS011;44557;51.862;19.378;2022-09-09T06:01:05;24.40;;;17.80;;
58784;SDS011;44557;51.862;19.378;2022-09-09T06:02:11;25.50;;;17.90;;
58784;SDS011;44557;51.862;19.378;2022-09-09T06:03:14;29.30;;;18.30;;
58784;SDS011;44557;51.862;19.378;2022-09-09T06:04:18;28.60;;;18.50;;
58784;SDS011;44557;51.862;19.378;2022-09-09T06:05:21;31.10;;;17.80;;
58784;SDS011;44557;51.862;19.378;2022-09-09T06:06:25;27.50;;;19.20;;
58784;SDS011;44557;51.862;19.378;2022-09-09T06:07:29;26.80;;;18.70;;
58784;SDS011;44557;51.862;19.378;2022-09-09T06:08:35;27.60;;;17.70;;
58784;SDS011;44557;51.862;19.378;2022-09-09T06:09:39;25.90;;;17.00;;
58784;SDS011;44557;51.862;19.378;2022-09-09T06:10:41;27.60;;;18.60;;
58784;SDS011;44557;51.862;19.378;2022-09-09T06:11:42;26.50;;;17.20;;
58784;SDS011;44557;51.862;19.378;2022-09-09T06:12:44;26.50;;;18.70;;
58784;SDS011;44557;51.862;19.378;2022-09-09T06:13:46;26.70;;;18.80;;
58784;SDS011;44557;51.862;19.378;2022-09-09T06:14:48;29.50;;;18.20;;
58784;SDS011;44557;51.862;19.378;2022-09-09T06:15:51;26.50;;;18.40;;
58784;SDS011;44557;51.862;19.378;2022-09-09T06:16:53;27.30;;;18.00;;
58784;SDS011;44557;51.862;19.378;2022-09-09T06:17:55;26.50;;;18.60;;
58784;SDS011;44557;51.862;19.378;2022-09-09T06:18:57;25.10;;;16.60;;
58784;SDS011;44557;51.862;19.378;2022-09-09T06:19:59;26.10;;;17.70;;
58784;SDS011;44557;51.862;19.378;2022-09-09T06:21:01;27.30;;;18.40;;
58784;SDS011;44557;51.862;19.378;2022-09-09T06:22:05;25.10;;;17.70;;
58784;SDS011;44557;51.862;19.378;2022-09-09T06:23:06;23.40;;;17.30;;
58784;SDS011;44557;51.862;19.378;2022-09-09T06:24:09;24.60;;;16.30;;
58784;SDS011;44557;51.862;19.378;2022-09-09T06:25:11;24.30;;;16.30;;
58784;SDS011;44557;51.862;19.378;2022-09-09T06:26:15;22.70;;;15.60;;
58784;SDS011;44557;51.862;19.378;2022-09-09T06:27:19;22.00;;;14.80;;
58784;SDS011;44557;51.862;19.378;2022-09-09T06:28:20;22.90;;;14.70;;
58784;SDS011;44557;51.862;19.378;2022-09-09T06:29:22;20.80;;;14.30;;
58784;SDS011;44557;51.862;19.378;2022-09-09T06:30:23;20.60;;;14.50;;
58784;SDS011;44557;51.862;19.378;2022-09-09T06:31:25;19.60;;;13.60;;
58784;SDS011;44557;51.862;19.378;2022-09-09T06:32:31;21.20;;;14.50;;
58784;SDS011;44557;51.862;19.378;2022-09-09T06:33:38;19.50;;;14.00;;
58784;SDS011;44557;51.862;19.378;2022-09-09T06:34:48;21.30;;;14.00;;
58784;SDS011;44557;51.862;19.378;2022-09-09T06:35:53;22.20;;;15.30;;
58784;SDS011;44557;51.862;19.378;2022-09-09T06:36:56;21.00;;;14.40;;
58784;SDS011;44557;51.862;19.378;2022-09-09T06:37:59;21.80;;;15.00;;
58784;SDS011;44557;51.862;19.378;2022-09-09T06:39:01;22.30;;;15.40;;
58784;SDS011;44557;51.862;19.378;2022-09-09T06:40:04;24.60;;;15.50;;
58784;SDS011;44557;51.862;19.378;2022-09-09T06:41:06;23.70;;;15.70;;
58784;SDS011;44557;51.862;19.378;2022-09-09T06:42:09;24.50;;;16.00;;
58784;SDS011;44557;51.862;19.378;2022-09-09T06:43:10;25.90;;;17.10;;
58784;SDS011;44557;51.862;19.378;2022-09-09T06:44:12;25.40;;;17.40;;
58784;SDS011;44557;51.862;19.378;2022-09-09T06:45:14;25.40;;;17.70;;
58784;SDS011;44557;51.862;19.378;2022-09-09T06:46:16;27.40;;;18.70;;
58784;SDS011;44557;51.862;19.378;2022-09-09T06:47:19;25.40;;;17.70;;
58784;SDS011;44557;51.862;19.378;2022-09-09T06:48:24;28.80;;;18.90;;
58784;SDS011;44557;51.862;19.378;2022-09-09T06:49:27;23.90;;;16.60;;
58784;SDS011;44557;51.862;19.378;2022-09-09T06:50:28;24.50;;;16.60;;
58784;SDS011;44557;51.862;19.378;2022-09-09T06:51:30;23.50;;;16.50;;
58784;SDS011;44557;51.862;19.378;2022-09-09T06:52:34;25.70;;;17.40;;
58784;SDS011;44557;51.862;19.378;2022-09-09T06:53:36;23.00;;;16.30;;
58784;SDS011;44557;51.862;19.378;2022-09-09T06:54:39;25.60;;;17.60;;
58784;SDS011;44557;51.862;19.378;2022-09-09T06:55:40;22.50;;;16.50;;
58784;SDS011;44557;51.862;19.378;2022-09-09T06:56:45;26.40;;;16.60;;